Date,TemperatureHighF,TemperatureAvgF,TemperatureLowF,DewpointHighF,DewpointAvgF,DewpointLowF,HumidityHigh,HumidityAvg,HumidityLow,PressureMaxIn,PressureMinIn,WindSpeedMaxMPH,WindSpeedAvgMPH,GustSpeedMaxMPH,PrecipitationSumIn
2013-1-1,25.4,23.7,22.1,23.0,21.5,20.0,95,91,88,30.68,30.58,9,2,12,0.00
2013-1-2,24.2,23.1,21.9,21.0,19.9,18.0,92,87,84,30.66,30.54,11,5,18,0.00
2013-1-3,25.7,22.9,21.6,21.0,19.4,18.0,94,86,79,30.54,30.39,8,2,15,0.00
2013-1-4,32.1,26.6,22.3,30.0,25.1,21.0,97,94,85,30.47,30.38,5,0,6,0.01
2013-1-5,26.5,25.4,24.9,25.0,24.3,24.0,96,95,92,30.41,30.28,1,0,2,0.00
2013-1-6,33.7,28.4,20.2,33.0,27.4,19.0,98,95,88,30.29,30.12,5,1,8,0.11
2013-1-7,43.5,38.3,33.0,41.0,36.5,33.0,98,93,83,30.13,30.00,20,8,27,0.45
2013-1-8,46.7,39.5,33.9,43.0,37.4,33.0,98,92,80,30.18,29.92,14,3,23,0.26
2013-1-9,46.5,37.1,28.1,40.0,33.7,26.0,95,87,75,29.92,29.69,15,4,25,0.07
2013-1-10,36.0,31.9,27.9,27.0,24.8,23.0,89,75,63,30.04,29.91,19,8,28,0.00
2013-1-11,36.1,26.9,17.0,23.0,18.5,14.0,90,72,42,30.32,30.02,11,2,15,0.00
2013-1-12,32.9,19.6,11.1,21.0,14.7,9.0,93,82,53,30.45,30.32,4,1,6,0.00
2013-1-13,32.4,17.5,6.1,20.0,12.8,4.0,92,83,55,30.54,30.45,5,1,7,0.00
2013-1-14,38.3,25.9,9.8,29.0,20.7,8.0,93,81,66,30.53,30.37,38,7,43,0.00
2013-1-15,41.9,27.8,19.3,32.0,24.4,18.0,100,87,67,30.65,30.53,5,1,6,0.00
2013-1-16,35.8,25.0,16.0,30.0,23.1,14.0,97,92,78,30.64,30.57,5,1,9,0.01
2013-1-17,26.5,24.5,22.6,25.0,23.6,22.0,97,96,94,30.62,30.47,3,1,5,0.00
2013-1-18,43.2,24.1,12.5,32.0,21.4,11.0,96,90,61,30.46,30.35,6,1,6,0.01
2013-1-19,31.8,23.4,16.1,28.0,21.8,15.0,96,93,85,30.54,30.39,4,1,6,0.00
2013-1-20,29.2,22.6,18.9,26.0,21.3,18.0,96,94,88,30.62,30.50,5,1,5,0.00
2013-1-21,24.0,21.4,19.5,22.0,20.0,18.0,96,94,90,30.50,30.39,3,0,6,0.00
2013-1-22,23.8,21.3,19.1,21.0,19.4,17.0,95,92,87,30.41,30.24,3,1,4,0.00
2013-1-23,25.7,22.9,18.5,23.0,21.3,17.0,100,93,87,30.24,30.05,3,1,5,0.00
2013-1-24,41.1,27.0,13.4,34.0,24.6,11.0,97,91,75,30.32,30.21,3,1,5,0.23
2013-1-25,38.4,33.6,29.0,38.0,33.1,29.0,98,98,97,30.21,29.97,4,0,5,0.14
2013-1-26,39.6,33.1,29.1,36.0,32.2,28.0,98,96,86,30.06,29.95,10,1,14,0.01
2013-1-27,37.9,32.6,29.0,33.0,30.6,28.0,98,92,75,30.10,30.02,10,3,16,0.01
2013-1-28,38.6,33.8,28.7,34.0,31.9,28.0,98,93,82,30.06,30.01,21,6,25,0.25
2013-1-29,40.0,37.3,35.0,37.0,35.4,33.0,97,92,87,30.37,30.05,14,4,17,0.10
2013-1-30,43.0,39.1,35.3,40.0,36.6,35.0,98,90,83,30.42,30.34,19,6,24,0.07
2013-1-31,45.4,41.0,34.8,39.0,36.7,34.0,98,85,72,30.41,30.30,23,8,30,0.01
2013-2-1,50.5,37.8,28.3,37.0,32.7,27.0,97,83,54,30.46,30.30,9,2,12,0.00
2013-2-2,49.1,33.5,22.8,37.0,29.8,22.0,97,87,63,30.49,30.33,7,2,8,0.01
2013-2-3,44.2,35.2,23.6,36.0,30.8,22.0,98,84,69,30.33,30.20,16,4,22,0.01
2013-2-4,47.2,39.2,34.0,37.0,34.9,32.0,94,85,68,30.21,29.97,10,2,19,0.00
2013-2-5,41.9,36.5,30.9,39.0,34.9,29.0,98,94,86,30.01,29.92,8,1,14,0.14
2013-2-6,40.2,35.3,32.1,38.0,34.5,32.0,98,96,90,30.11,29.92,8,1,9,0.05
2013-2-7,40.1,33.5,25.3,33.0,29.7,24.0,98,87,64,30.13,29.92,10,4,15,0.05
2013-2-8,45.6,31.7,22.0,31.0,25.4,20.0,97,79,47,30.23,30.14,15,3,19,0.01
2013-2-9,42.9,33.4,22.6,33.0,28.3,21.0,95,82,67,30.29,30.16,18,5,25,0.00
2013-2-10,46.4,34.0,24.0,36.0,29.2,23.0,96,84,60,30.34,30.24,7,2,11,0.01
2013-2-11,44.9,35.7,23.8,35.0,30.9,23.0,96,83,66,30.33,30.24,24,9,34,0.01
2013-2-12,45.4,41.6,38.5,39.0,36.7,34.0,93,83,75,30.39,30.32,17,9,24,0.00
2013-2-13,47.6,42.9,38.4,39.0,36.2,33.0,87,78,60,30.45,30.31,18,9,23,0.00
2013-2-14,48.5,40.6,31.4,40.0,34.5,30.0,94,79,70,30.53,30.44,18,7,25,0.00
2013-2-15,54.0,38.2,27.3,41.0,33.5,26.0,97,84,60,30.54,30.29,7,2,11,0.00
2013-2-16,46.6,38.1,29.4,41.0,33.7,28.0,97,84,67,30.29,30.13,25,6,27,0.01
2013-2-17,41.3,35.6,27.4,30.0,27.1,24.0,90,72,60,30.21,30.10,27,9,37,0.00
2013-2-18,40.5,33.4,27.2,30.0,27.8,25.0,94,81,61,30.10,29.79,12,2,14,0.00
2013-2-19,46.3,34.4,26.0,30.0,28.1,24.0,94,80,49,29.98,29.74,6,1,9,0.00
2013-2-20,40.7,32.8,22.5,33.0,27.7,21.0,95,82,61,30.07,29.98,14,3,20,0.00
2013-2-21,32.6,32.5,32.4,31.0,31.0,31.0,94,94,93,30.07,30.07,0,0,1,0.00
2013-2-22,39.3,36.3,32.0,36.0,31.1,-99.9,96,86,69,30.01,0.00,24,-9,34,0.49
2013-2-23,40.0,35.2,30.3,33.0,29.8,27.0,96,81,65,30.37,29.97,28,10,34,0.02
2013-2-24,41.7,36.5,32.3,33.0,30.2,27.0,90,78,67,30.38,30.08,15,6,19,0.00
2013-2-25,40.4,35.3,32.0,35.0,31.6,28.0,97,87,72,30.30,29.99,27,7,37,0.24
2013-2-26,42.8,36.6,32.4,33.0,29.5,26.0,89,76,58,30.37,30.26,14,4,19,0.00
2013-2-27,47.9,40.3,31.5,39.0,35.5,30.0,94,83,69,30.31,30.26,12,4,15,0.00
2013-2-28,49.3,41.9,37.3,47.0,40.7,36.0,97,95,89,30.42,30.24,10,1,11,0.52
2013-3-1,51.6,43.9,35.8,48.0,42.2,35.0,98,94,83,30.43,30.33,10,3,13,0.03
2013-3-2,52.6,41.7,33.6,46.0,38.1,31.0,98,88,71,30.32,30.08,22,5,26,0.02
2013-3-3,43.4,36.8,27.2,31.0,26.3,22.0,82,67,52,30.26,30.10,28,10,33,0.00
2013-3-4,46.3,33.0,21.4,26.0,20.9,15.0,94,66,29,30.29,30.05,13,3,23,0.00
2013-3-5,37.1,31.4,25.6,35.0,28.0,-99.9,97,91,80,30.04,29.78,3,0,6,0.16
2013-3-6,38.2,34.1,32.6,36.0,33.0,32.0,97,95,86,29.95,29.61,15,1,18,0.51
2013-3-7,47.2,37.0,29.5,37.0,32.2,28.0,98,84,54,30.08,29.96,11,2,12,0.00
2013-3-8,53.1,37.1,25.9,36.0,29.5,25.0,97,77,38,30.21,30.05,8,2,9,0.01
2013-3-9,54.9,39.6,24.4,33.0,27.3,21.0,95,67,29,30.47,30.22,17,5,23,0.01
2013-3-10,50.0,42.4,30.7,39.0,34.7,26.0,87,74,52,30.46,30.35,17,7,24,0.00
2013-3-11,51.6,42.8,33.6,43.0,38.3,32.0,95,85,61,30.38,30.22,8,2,10,0.00
2013-3-12,53.6,46.2,38.4,45.0,41.3,37.0,96,83,61,30.23,30.13,13,5,21,0.00
2013-3-13,60.7,49.2,39.3,47.0,41.6,37.0,95,76,54,30.21,30.11,13,3,17,0.00
2013-3-14,61.5,47.5,40.2,47.0,38.6,30.0,95,75,39,30.17,30.04,24,5,42,0.03
2013-3-15,54.2,46.5,38.4,45.0,41.0,38.0,98,82,62,30.21,30.13,15,6,21,0.00
2013-3-16,46.6,41.0,32.8,40.0,37.2,30.0,94,86,75,30.13,29.89,26,8,35,0.07
2013-3-17,40.3,35.3,30.5,33.0,29.5,27.0,95,80,63,30.20,29.99,24,10,29,0.02
2013-3-18,44.6,38.0,27.8,32.0,30.1,24.0,87,74,58,30.23,30.18,25,10,30,0.00
2013-3-19,45.9,33.6,25.9,35.0,28.6,24.0,97,84,46,30.23,29.82,11,2,15,0.15
2013-3-20,45.7,35.6,31.7,40.0,33.3,29.0,98,91,72,30.05,29.58,28,5,40,1.22
2013-3-21,41.0,34.8,30.3,32.0,28.8,26.0,94,79,59,30.22,30.05,28,10,35,0.00
2013-3-22,40.7,33.0,27.4,29.0,25.7,21.0,92,75,50,30.37,30.20,19,8,25,0.00
2013-3-23,44.0,32.9,25.5,28.0,24.5,18.0,92,73,37,30.39,30.29,8,2,10,0.00
2013-3-24,44.8,34.1,24.5,29.0,25.5,23.0,95,74,44,30.34,30.20,11,2,15,0.00
2013-3-25,53.7,39.7,26.0,36.0,29.4,24.0,93,70,43,30.20,29.98,10,2,13,0.01
2013-3-26,50.9,43.7,33.5,39.0,35.0,30.0,93,73,48,30.02,29.95,5,1,8,0.00
2013-3-27,56.5,45.8,35.7,43.0,38.6,34.0,94,78,54,30.01,29.92,6,1,8,0.03
2013-3-28,57.2,45.2,36.1,46.0,40.3,35.0,97,84,54,30.14,30.01,7,2,12,0.01
2013-3-29,63.4,48.1,37.7,45.0,39.4,36.0,95,74,44,30.22,30.14,8,2,15,0.00
2013-3-30,67.4,49.6,32.6,46.0,39.9,31.0,97,73,42,30.25,30.08,10,3,15,0.00
2013-3-31,69.3,51.5,34.8,45.0,39.6,33.0,94,68,36,30.10,29.90,13,3,17,0.00
2013-4-1,60.6,50.1,37.1,48.0,42.8,36.0,96,77,61,30.09,29.95,23,7,26,0.00
2013-4-2,58.2,52.1,41.3,46.0,43.7,39.0,91,74,61,30.12,30.08,21,10,30,0.00
2013-4-3,64.9,49.5,32.1,46.0,40.1,31.0,98,74,40,30.13,29.96,10,2,12,0.00
2013-4-4,46.8,45.3,44.2,44.0,41.4,39.0,95,86,77,29.95,29.76,4,1,8,0.02
2013-4-10,54.0,46.7,39.9,48.0,37.1,-99.9,94,73,65,30.23,0.00,33,-7,39,0.01
2013-4-11,51.6,43.5,31.8,37.0,33.6,28.0,89,69,52,30.24,30.13,33,13,35,0.01
2013-4-12,50.9,38.4,27.6,39.0,33.1,26.0,95,83,47,30.14,29.79,15,3,22,0.09
2013-4-13,41.7,37.2,33.3,37.0,32.2,26.0,93,82,68,30.00,29.79,23,9,29,0.05
2013-4-14,46.6,37.9,30.1,36.0,31.0,28.0,95,77,52,30.02,29.90,17,7,24,0.05
2013-4-15,45.5,37.2,27.2,38.0,32.0,26.0,95,82,59,30.16,29.92,9,3,15,0.02
2013-4-16,43.6,36.0,28.0,36.0,31.8,27.0,96,85,62,30.43,30.16,9,3,13,0.01
2013-4-17,52.7,40.0,26.1,37.0,31.1,25.0,96,74,41,30.49,30.41,16,5,24,0.01
2013-4-18,52.1,46.0,40.1,41.0,37.9,34.0,86,74,61,30.41,30.26,17,9,26,0.00
2013-4-19,53.6,47.7,43.4,47.0,42.7,40.0,95,83,71,30.26,30.08,17,6,28,0.06
2013-4-20,51.6,46.3,41.8,41.0,39.2,37.0,87,77,64,30.25,30.17,20,8,26,0.01
2013-4-21,50.7,45.0,35.8,40.0,37.1,33.0,91,74,61,30.27,30.15,20,11,26,0.01
2013-4-22,56.5,43.2,29.2,35.0,26.9,18.0,95,60,23,30.48,30.28,16,4,24,0.01
2013-4-23,62.5,44.7,27.4,35.0,29.3,23.0,90,60,26,30.43,30.16,16,3,21,0.01
2013-4-24,66.8,48.6,28.4,36.0,31.1,26.0,92,57,24,30.33,30.01,7,2,12,0.00
2013-4-25,71.4,57.4,38.0,43.0,38.4,31.0,78,52,32,30.08,29.96,17,6,25,0.00
2013-4-26,74.2,57.5,38.9,46.0,37.7,30.0,91,54,20,30.19,30.09,18,5,22,0.00
2013-4-27,64.7,52.4,39.7,42.0,36.0,28.0,82,58,26,30.18,30.11,28,11,41,0.00
2013-4-28,57.0,50.5,45.8,43.0,39.6,35.0,88,68,46,30.17,29.99,19,10,29,0.00
2013-4-29,48.2,44.1,37.4,43.0,34.5,25.0,94,70,54,30.09,29.94,23,10,32,0.03
2013-4-30,49.6,41.3,32.1,28.0,26.0,24.0,75,56,40,30.41,30.10,21,10,29,0.03
2013-5-1,61.0,44.3,25.5,35.0,28.0,23.0,91,58,27,30.58,30.41,12,3,14,0.00
2013-5-2,71.8,53.0,31.4,43.0,32.9,27.0,89,53,19,30.58,30.23,8,2,14,0.00
2013-5-3,73.6,57.9,38.8,45.0,39.1,33.0,83,54,27,30.28,30.11,9,3,14,0.00
2013-5-4,72.6,58.6,39.0,45.0,36.2,30.0,91,50,22,30.16,29.96,22,5,31,0.00
2013-5-5,75.2,59.8,38.9,41.0,35.9,32.0,84,47,22,29.97,29.77,22,5,30,0.00
2013-5-6,83.0,65.4,43.0,48.0,40.8,36.0,80,45,20,29.83,29.67,17,4,22,0.00
2013-5-7,78.4,64.8,52.1,53.0,48.3,42.0,78,57,34,29.88,29.75,16,4,24,0.00
2013-5-8,81.1,65.6,52.3,57.0,51.5,47.0,84,62,34,30.01,29.88,14,4,20,0.00
2013-5-9,84.6,64.6,45.3,59.0,49.7,43.0,95,64,25,30.07,29.97,13,3,16,0.00
2013-5-10,86.5,67.0,44.9,56.0,48.9,41.0,85,57,22,30.11,30.01,9,3,18,0.00
2013-5-11,83.2,68.8,53.0,60.0,52.0,45.0,90,59,28,30.11,29.92,16,3,20,0.00
2013-5-12,70.0,60.2,52.4,57.0,51.3,43.0,89,73,44,30.03,29.98,23,6,33,0.00
2013-5-13,61.1,53.6,40.0,51.0,46.3,37.0,92,77,57,30.15,29.98,20,6,34,0.03
2013-5-14,62.3,49.8,36.5,39.0,35.5,27.0,93,62,29,30.18,30.06,13,4,19,0.00
2013-5-15,55.8,47.8,39.2,45.0,41.1,36.0,89,78,63,30.09,30.00,12,4,16,0.01
2013-5-16,66.6,52.4,36.4,48.0,43.5,35.0,97,74,45,30.02,29.84,18,4,22,0.00
2013-5-17,57.7,50.1,45.4,46.0,43.5,41.0,94,79,58,30.03,29.92,19,6,23,0.19
2013-5-18,54.9,49.8,41.5,46.0,42.0,39.0,90,75,62,30.21,30.04,17,6,27,0.00
2013-5-19,61.1,53.8,42.7,45.0,42.5,39.0,87,67,51,30.28,30.21,22,10,29,0.00
2013-5-20,72.0,54.9,34.9,49.0,41.1,33.0,96,64,32,30.28,29.85,10,2,17,0.00
2013-5-21,54.6,46.9,38.7,45.0,39.5,36.0,92,76,55,29.86,29.70,19,7,22,0.11
2013-5-22,43.1,39.6,37.1,40.0,36.8,35.0,94,89,83,29.98,29.86,9,2,12,0.34
2013-5-23,48.0,41.5,34.9,42.0,38.3,34.0,96,88,76,30.05,29.98,10,2,14,0.27
2013-5-24,53.6,45.2,37.7,44.0,40.9,36.0,96,85,67,30.07,29.99,17,4,26,0.08
2013-5-25,58.8,47.7,35.3,45.0,40.6,34.0,97,78,56,30.05,29.95,12,3,14,0.00
2013-5-26,60.7,51.4,44.2,50.0,45.2,41.0,96,80,56,30.00,29.94,16,4,26,0.11
2013-5-27,52.5,48.3,42.8,50.0,46.2,40.0,98,92,87,29.98,29.77,8,1,14,0.70
2013-5-28,56.8,50.2,44.3,48.0,44.7,42.0,96,82,65,29.91,29.76,20,5,27,0.01
2013-5-29,54.1,48.4,44.5,50.0,44.5,42.0,96,87,70,29.99,29.66,17,5,21,0.64
2013-5-30,57.1,48.6,40.9,43.0,41.0,38.0,93,76,56,30.21,30.00,16,6,21,0.00
2013-5-31,66.6,52.9,35.6,47.0,41.7,34.0,95,68,44,30.29,30.18,11,3,16,0.00
2013-6-1,69.5,55.1,39.7,49.0,44.5,36.0,92,70,43,30.22,29.98,16,4,22,0.00
2013-6-2,65.7,56.6,42.7,48.0,43.6,40.0,94,64,45,30.00,29.93,22,10,35,0.00
2013-6-3,73.5,59.6,39.0,51.0,44.2,36.0,92,60,35,30.02,29.93,14,4,22,0.00
2013-6-4,78.4,62.0,42.1,53.0,45.0,38.0,87,58,29,30.07,29.97,9,2,17,0.00
2013-6-5,81.5,66.7,48.3,54.0,49.6,43.0,83,58,28,30.01,29.89,11,3,19,0.00
2013-6-6,83.1,68.1,50.7,59.0,52.4,47.0,90,61,29,29.93,29.86,15,4,22,0.00
2013-6-7,71.6,65.2,56.9,54.0,47.2,38.0,72,53,35,30.02,29.91,20,10,28,0.00
2013-6-8,77.1,64.7,50.2,50.0,44.4,37.0,70,49,29,30.02,29.95,19,8,24,0.00
2013-6-9,70.6,61.8,51.4,47.0,42.6,36.0,76,51,33,29.96,29.86,21,8,23,0.00
2013-6-10,71.4,56.9,40.1,51.0,42.9,36.0,85,62,38,29.89,29.76,14,5,20,0.00
2013-6-11,57.4,51.8,46.5,44.0,40.6,35.0,80,66,56,30.08,29.85,20,10,29,0.00
2013-6-12,61.8,51.3,36.7,44.0,40.4,35.0,94,68,48,30.11,30.07,17,7,24,0.00
2013-6-13,59.2,52.1,47.2,48.0,43.6,41.0,85,73,53,30.19,30.09,23,7,25,0.01
2013-6-14,67.9,56.9,45.6,49.0,44.7,41.0,86,66,41,30.19,29.99,15,5,25,0.00
2013-6-15,79.1,62.0,41.2,55.0,44.5,37.0,88,58,25,29.98,29.85,11,3,15,0.00
2013-6-16,79.4,63.1,49.1,58.0,49.9,43.0,89,65,28,30.02,29.90,16,4,22,0.00
2013-6-17,73.7,63.4,51.5,53.0,48.3,44.0,89,61,38,30.02,29.85,19,5,21,0.00
2013-6-18,65.7,58.4,51.7,48.0,43.6,38.0,78,60,37,29.93,29.83,17,8,22,0.00
2013-6-19,61.4,54.1,46.9,46.0,43.5,41.0,82,68,53,29.99,29.85,20,8,27,0.00
2013-6-20,58.5,52.9,48.9,47.0,44.7,42.0,88,74,62,30.07,29.96,16,8,22,0.01
2013-6-21,65.9,56.4,48.2,50.0,46.7,43.0,91,71,54,30.10,30.05,15,6,21,0.01
2013-6-22,74.6,60.1,41.9,58.0,47.3,41.0,95,67,34,30.09,29.84,8,2,14,0.00
2013-6-23,65.9,59.7,55.1,58.0,55.0,51.0,96,85,65,29.84,29.63,6,1,8,0.15
2013-6-24,61.9,56.4,52.2,56.0,50.9,48.0,97,82,64,29.70,29.60,14,4,16,0.03
2013-6-25,61.3,54.9,50.3,55.0,52.4,49.0,97,92,75,29.88,29.70,7,1,11,0.45
2013-6-26,66.7,57.5,50.3,56.0,53.1,49.0,97,86,62,30.07,29.88,9,2,14,0.03
2013-6-27,76.6,63.0,53.5,62.0,56.0,52.0,96,80,50,30.16,30.05,16,2,17,0.01
2013-6-28,87.6,71.3,52.4,68.0,58.5,51.0,95,67,39,30.16,29.95,8,2,13,0.00
2013-6-29,85.8,73.3,60.5,66.0,60.9,58.0,93,68,40,30.00,29.89,10,3,16,0.00
2013-6-30,92.5,76.1,56.9,65.0,60.0,54.0,92,62,27,29.95,29.80,9,2,14,0.00
2013-7-1,95.3,77.9,61.2,68.0,61.3,56.0,86,61,30,29.89,29.80,12,3,17,0.00
2013-7-2,93.5,77.8,62.4,71.0,60.7,48.0,93,61,21,29.93,29.86,16,4,22,0.00
2013-7-3,84.7,72.5,58.5,61.0,53.1,49.0,84,53,31,29.96,29.86,17,7,19,0.00
2013-7-4,75.1,66.7,57.0,55.0,48.1,40.0,66,52,41,29.93,29.85,22,10,30,0.00
2013-7-5,72.0,63.6,56.9,51.0,47.9,45.0,70,58,43,29.88,29.82,20,11,30,0.00
2013-7-6,80.3,60.0,43.3,58.0,49.0,41.0,92,71,32,29.89,29.76,11,2,16,0.00
2013-7-7,82.3,67.0,50.6,59.0,53.5,45.0,92,65,27,29.84,29.73,16,4,23,0.00
2013-7-8,81.7,66.2,48.4,57.0,52.5,45.0,91,64,32,29.98,29.83,11,4,15,0.00
2013-7-9,88.8,71.0,49.2,60.0,52.7,42.0,93,59,20,30.03,29.88,8,2,14,0.00
2013-7-10,81.4,68.8,51.8,58.0,51.7,47.0,87,58,31,29.94,29.79,18,7,22,0.00
2013-7-11,74.8,63.2,49.1,47.0,42.4,35.0,75,49,27,29.90,29.82,17,8,22,0.00
2013-7-12,70.3,62.0,54.8,49.0,42.5,-99.9,68,51,32,30.01,29.87,18,-7,25,0.00
2013-7-13,78.9,62.2,40.4,50.0,40.9,33.0,86,51,19,30.11,30.00,8,3,17,0.00
2013-7-14,84.9,67.0,46.7,47.0,42.6,36.0,79,46,18,30.07,29.87,14,4,18,0.00
2013-7-15,84.5,65.0,45.2,54.0,47.0,42.0,91,59,24,29.93,29.79,7,2,13,0.01
2013-7-16,82.8,66.0,48.8,62.0,51.2,43.0,86,62,28,29.87,29.76,10,2,16,0.01
2013-7-17,82.3,69.3,56.9,57.0,48.3,34.0,95,54,19,30.04,29.87,17,5,20,0.04
2013-7-18,89.6,67.8,44.7,57.0,47.9,36.0,88,55,17,30.09,29.96,15,3,19,0.00
2013-7-19,91.8,69.8,45.9,57.0,50.0,43.0,88,54,21,30.02,29.86,14,3,19,0.00
2013-7-20,89.2,68.3,47.7,60.0,48.9,40.0,89,56,18,29.92,29.78,17,5,23,0.00
2013-7-21,86.5,68.5,45.5,58.0,51.3,41.0,85,58,29,29.82,29.72,22,5,24,0.00
2013-7-22,86.6,73.3,60.2,57.0,51.6,46.0,73,49,28,29.86,29.79,21,6,23,0.00
2013-7-23,92.0,69.9,47.4,61.0,51.5,44.0,93,58,21,29.94,29.81,15,3,22,0.00
2013-7-24,89.9,72.2,48.8,59.0,52.4,45.0,87,54,23,29.93,29.85,11,3,16,0.00
2013-7-25,89.8,70.6,48.1,55.0,48.5,42.0,88,52,19,29.95,29.90,15,4,19,0.00
2013-7-26,89.6,77.1,46.5,55.0,46.1,37.0,77,37,16,30.02,29.93,16,7,22,0.00
2013-7-27,80.0,68.5,52.1,51.0,47.3,42.0,69,48,29,29.99,29.85,20,7,25,0.00
2013-7-28,75.2,64.8,51.7,54.0,49.5,44.0,79,59,41,29.88,29.80,23,6,28,0.00
2013-7-29,81.1,64.7,43.1,56.0,49.3,41.0,94,62,28,29.91,29.84,14,4,17,0.00
2013-7-30,83.1,67.9,52.3,58.0,52.3,48.0,91,61,33,30.02,29.92,11,3,17,0.00
2013-7-31,82.7,67.9,56.1,61.0,55.8,49.0,82,67,34,30.02,29.88,13,2,17,0.00
2013-8-1,68.4,62.9,56.7,58.0,53.6,51.0,85,72,60,30.00,29.90,21,8,26,0.00
2013-8-2,69.3,61.6,56.1,55.0,51.9,50.0,82,71,58,30.04,29.98,16,7,25,0.01
2013-8-3,78.9,64.4,49.1,59.0,53.8,47.0,95,71,40,30.06,29.94,7,1,11,0.00
2013-8-4,86.4,69.3,52.3,59.0,52.9,45.0,91,61,24,30.00,29.83,10,2,15,0.00
2013-8-5,87.2,70.3,52.7,62.0,55.6,49.0,89,63,32,29.92,29.81,13,3,18,0.00
2013-8-6,87.7,69.9,50.1,61.0,52.9,48.0,93,59,25,29.91,29.81,12,4,16,0.00
2013-8-7,87.7,70.3,49.3,56.0,49.2,40.0,83,53,19,29.92,29.81,16,6,25,0.00
2013-8-8,84.8,69.5,54.3,63.0,55.8,50.0,86,64,36,29.89,29.78,15,3,21,0.00
2013-8-9,89.4,69.4,54.7,63.0,57.0,51.0,93,69,29,29.95,29.70,18,3,28,0.66
2013-8-10,78.8,65.9,53.6,65.0,59.2,53.0,97,80,48,29.94,29.84,18,3,27,0.01
2013-8-11,75.8,66.3,53.0,60.0,55.1,50.0,91,69,44,29.96,29.89,12,3,18,0.00
2013-8-12,80.3,63.6,46.8,58.0,51.4,45.0,94,68,33,30.01,29.91,12,4,20,0.00
2013-8-13,87.0,65.9,46.6,55.0,49.2,35.0,95,62,16,30.02,29.87,9,2,12,0.00
2013-8-14,83.0,68.0,53.5,58.0,50.2,45.0,79,55,33,29.93,29.85,14,4,17,0.00
2013-8-15,81.2,69.5,60.2,61.0,55.4,49.0,79,62,41,29.89,29.85,16,5,19,0.00
2013-8-16,80.2,68.0,57.7,62.0,57.8,54.0,92,72,46,29.95,29.88,11,3,18,0.01
2013-8-17,76.6,66.8,53.5,59.0,55.0,50.0,96,69,41,30.00,29.93,17,5,24,0.00
2013-8-18,80.4,66.1,48.7,57.0,51.9,45.0,94,64,29,30.05,29.95,22,5,23,0.00
2013-8-19,78.4,62.4,51.1,56.0,52.0,49.0,94,72,42,30.00,29.98,17,4,23,0.00
2013-8-26,72.3,64.1,55.7,57.0,49.1,-99.9,85,63,50,29.95,0.00,18,-18,20,0.00
2013-8-27,78.5,64.6,49.3,60.0,53.6,48.0,95,70,41,29.95,29.74,9,2,14,0.00
2013-8-28,79.4,68.4,56.9,62.0,56.2,53.0,89,67,43,29.85,29.76,11,3,16,0.01
2013-8-29,72.8,65.4,60.0,63.0,57.7,55.0,91,77,57,30.01,29.78,20,5,25,0.08
2013-8-30,74.2,64.3,52.5,58.0,54.2,50.0,92,72,47,30.09,29.99,11,4,17,0.00
2013-8-31,84.2,65.1,45.3,62.0,52.2,44.0,96,68,34,30.03,29.81,7,2,14,0.00
2013-9-1,85.7,68.1,49.5,59.0,52.7,47.0,91,62,31,29.84,29.71,17,3,19,0.00
2013-9-2,80.3,67.7,55.9,57.0,54.2,52.0,87,64,37,29.84,29.77,14,4,20,0.00
2013-9-3,77.4,67.0,58.1,59.0,55.5,52.0,89,69,47,29.93,29.82,14,4,19,0.01
2013-9-4,77.9,64.6,52.2,59.0,54.2,48.0,91,71,45,29.94,29.87,15,3,19,0.00
2013-9-5,73.2,63.9,54.8,61.0,57.3,52.0,94,80,64,29.96,29.80,14,4,30,0.33
2013-9-6,63.3,57.3,53.5,57.0,54.4,52.0,100,90,74,30.11,29.93,14,3,20,0.44
2013-9-7,74.8,60.0,44.3,60.0,53.0,44.0,98,80,46,30.09,29.94,8,2,9,0.00
2013-9-8,79.3,65.1,50.5,60.0,55.9,50.0,98,75,48,30.05,29.92,10,2,12,0.00
2013-9-9,85.0,65.9,47.2,62.0,54.5,46.0,97,71,37,29.96,29.84,8,2,12,0.00
2013-9-10,85.9,68.6,52.0,59.0,53.9,49.0,94,65,30,29.93,29.83,13,3,16,0.00
2013-9-11,89.0,68.8,49.5,62.0,54.4,48.0,96,66,30,29.96,29.87,11,2,13,0.00
2013-9-12,91.0,70.8,50.1,60.0,54.8,48.0,92,62,26,29.93,29.79,6,1,11,0.00
2013-9-13,86.6,68.2,52.2,64.0,58.4,51.0,97,74,40,29.83,29.70,13,2,16,0.00
2013-9-14,89.0,69.0,49.9,63.0,55.8,49.0,96,68,33,29.78,29.65,11,2,11,0.00
2013-9-15,79.1,66.1,57.4,63.0,56.9,53.0,89,73,49,29.76,29.59,21,5,26,0.00
2013-9-16,64.1,58.8,50.2,56.0,51.6,48.0,92,77,65,29.89,29.77,12,5,21,0.06
2013-9-17,63.1,53.8,44.3,50.0,45.9,43.0,96,76,56,29.90,29.78,19,7,24,0.00
2013-9-18,63.2,55.1,44.6,46.0,43.6,39.0,82,67,44,30.04,29.90,20,7,24,0.00
2013-9-19,73.5,53.2,33.2,47.0,40.4,32.0,96,67,29,30.06,29.84,14,2,17,0.00
2013-9-20,72.3,55.4,37.2,51.0,43.8,35.0,95,69,33,29.84,29.61,18,4,22,0.06
2013-9-21,64.5,54.0,45.6,53.0,48.0,45.0,98,82,54,29.73,29.64,13,3,19,0.01
2013-9-22,52.3,49.4,46.6,50.0,47.1,45.0,96,91,81,29.82,29.68,7,1,12,0.44
2013-9-23,55.4,50.1,46.2,51.0,47.9,45.0,97,92,79,29.96,29.82,8,1,10,0.06
2013-9-24,55.7,48.9,44.3,46.0,43.3,41.0,96,82,59,29.95,29.81,13,4,17,0.00
2013-9-25,58.4,48.2,38.2,45.0,41.6,36.0,95,79,56,29.97,29.80,15,4,19,0.08
2013-9-26,59.0,45.4,33.1,49.0,40.0,32.0,97,83,50,30.14,29.97,12,2,14,0.08
2013-9-27,52.3,47.2,38.7,48.0,43.5,36.0,95,87,80,30.14,29.98,10,3,14,0.12
2013-10-2,51.9,44.2,37.3,44.0,37.9,-99.9,96,83,65,30.14,30.04,15,-16,21,0.00
2013-10-3,57.4,42.9,30.6,44.0,37.8,30.0,98,84,59,30.44,30.15,9,2,14,0.01
2013-10-4,59.9,44.3,30.9,46.0,37.7,30.0,96,81,47,30.52,30.42,6,2,11,0.01
2013-10-5,65.5,47.0,31.1,46.0,37.9,30.0,97,75,35,30.45,30.25,6,2,9,0.01
2013-10-6,71.0,49.2,33.3,46.0,37.7,31.0,96,70,25,30.25,29.99,11,2,21,0.00
2013-10-7,53.4,48.1,41.6,47.0,42.4,37.0,95,81,67,30.05,29.92,19,4,23,0.08
2013-10-8,50.5,44.6,32.2,44.0,39.9,31.0,95,84,68,30.05,29.92,19,5,21,0.04
2013-10-9,55.3,41.1,28.7,43.0,36.1,28.0,96,84,55,30.13,29.96,6,1,10,0.00
2013-10-10,58.5,46.0,34.0,44.0,38.6,33.0,95,78,50,30.06,29.91,17,5,26,0.01
2013-10-11,52.9,42.1,31.8,42.0,37.3,31.0,97,84,62,30.13,30.06,7,2,11,0.01
2013-10-12,50.1,42.8,34.9,44.0,40.4,34.0,96,91,74,30.19,30.04,4,0,7,0.11
2013-10-13,58.1,42.8,30.7,45.0,37.6,30.0,97,84,51,30.34,30.19,5,1,8,0.01
2013-10-14,59.1,43.2,30.1,43.0,36.6,29.0,97,80,48,30.43,30.34,8,1,12,0.01
2013-10-15,58.6,41.7,27.2,42.0,34.2,26.0,96,78,39,30.44,30.21,6,1,11,0.01
2013-10-16,60.6,44.8,30.9,43.0,36.7,29.0,96,76,46,30.21,30.15,9,2,12,0.00
2013-10-18,62.7,49.2,39.4,43.0,40.4,37.0,93,75,43,30.22,30.20,4,1,8,0.00
2013-10-19,64.6,45.5,30.2,48.0,38.4,29.0,96,79,47,30.21,30.07,4,1,6,0.01
2013-10-20,70.5,49.7,33.4,49.0,40.9,32.0,97,76,35,30.20,30.11,5,1,8,0.01
2013-10-21,71.1,50.2,33.0,50.0,41.8,32.0,97,77,38,30.20,30.11,6,1,10,0.00
2013-10-22,69.1,49.7,33.7,49.0,42.4,33.0,97,79,44,30.19,30.06,7,1,12,0.00
2013-10-23,67.8,48.6,32.7,50.0,42.5,32.0,97,82,48,30.14,30.04,4,1,8,0.01
2013-10-24,66.5,49.8,34.5,50.0,43.6,34.0,97,82,52,30.13,30.04,6,1,9,0.01
2013-10-25,65.2,47.8,33.6,51.0,42.2,32.0,97,83,55,30.26,30.13,6,1,8,0.01
2013-10-26,62.4,45.9,34.2,50.0,40.7,32.0,96,83,60,30.29,30.13,5,1,9,0.01
2013-10-27,50.8,43.3,33.4,44.0,40.0,32.0,97,89,68,30.12,29.79,24,4,29,0.04
2013-10-28,51.0,45.5,31.2,39.0,28.8,25.0,86,54,40,29.94,29.82,27,8,35,0.00
2013-10-29,50.1,37.1,23.7,31.0,26.4,22.0,94,69,40,30.08,29.94,7,2,10,0.00
2013-10-30,55.4,49.9,42.8,35.0,32.4,30.0,66,52,44,30.16,30.09,21,10,25,0.00
2013-10-31,55.5,48.6,40.5,46.0,41.7,34.0,90,77,63,30.25,30.12,23,9,29,0.00
2013-11-1,60.5,45.0,31.1,46.0,38.7,30.0,96,81,47,30.29,29.94,5,1,8,0.08
2013-11-2,48.1,43.1,36.3,45.0,39.5,32.0,97,87,72,29.94,29.66,31,8,38,0.68
2013-11-3,44.0,38.9,34.2,35.0,33.1,31.0,90,80,64,30.08,29.94,15,6,23,0.01
2013-11-4,38.7,37.1,38.3,38.0,32.3,-99.9,96,92,94,30.20,0.00,3,-38,6,0.10
2013-11-5,49.7,42.4,37.6,45.0,39.4,37.0,97,89,77,30.22,30.10,18,4,21,0.02
2013-11-6,47.9,44.3,39.7,45.0,41.8,38.0,97,91,79,30.32,30.19,9,2,13,0.34
2013-11-7,46.8,42.2,39.7,43.0,39.9,39.0,97,92,81,30.18,29.87,20,6,37,0.67
2013-11-8,46.3,41.9,34.4,41.0,37.8,33.0,96,85,75,30.16,30.02,17,4,33,0.03
2013-11-9,46.6,39.2,31.7,41.0,36.7,31.0,98,91,75,30.18,30.12,3,0,4,0.00
2013-11-10,51.0,42.1,34.9,44.0,39.5,34.0,97,90,70,30.24,30.13,7,1,8,0.01
2013-11-11,47.0,42.4,38.4,42.0,39.8,37.0,100,90,79,30.33,30.23,12,2,15,0.00
2013-11-12,54.4,43.6,36.5,50.0,42.0,36.0,97,94,83,30.40,30.24,6,1,8,0.09
2013-11-13,54.1,44.1,33.3,44.0,38.9,30.0,98,83,58,30.43,30.27,16,5,19,0.01
2013-11-14,50.1,38.0,30.1,39.0,33.6,29.0,96,85,62,30.27,30.04,22,6,28,0.00
2013-11-15,42.1,39.4,34.7,37.0,34.8,32.0,95,84,71,30.04,29.43,19,7,27,0.25
2013-11-16,42.3,38.9,35.3,37.0,34.3,32.0,96,84,70,29.78,29.38,22,11,34,0.06
2013-11-17,45.3,40.4,36.6,42.0,38.6,35.0,96,93,85,29.97,29.79,9,3,13,0.08
2013-11-18,49.1,44.7,40.9,46.0,42.8,40.0,97,93,84,29.96,29.69,10,2,14,0.50
2013-11-19,48.6,43.5,35.1,46.0,38.8,27.0,97,84,68,29.90,29.65,21,8,30,0.17
2013-11-20,39.7,29.8,19.4,30.0,23.3,14.0,95,79,35,30.50,29.91,10,2,18,0.01
2013-11-21,38.0,23.9,13.4,21.0,14.6,8.0,93,73,29,30.78,30.50,8,1,13,0.00
2013-11-22,36.8,24.0,13.8,19.0,16.3,11.0,92,75,44,30.83,30.71,8,1,11,0.01
2013-11-23,37.8,24.8,14.7,22.0,17.4,13.0,92,76,44,30.71,30.44,5,1,8,0.00
2013-11-24,42.4,26.7,17.0,24.0,19.8,15.0,93,78,43,30.47,30.33,8,1,9,0.00
2013-11-25,43.0,28.0,18.4,28.0,21.8,17.0,94,80,47,30.52,30.44,7,1,9,0.00
2013-11-26,40.9,28.1,19.7,29.0,23.5,18.0,94,84,57,30.45,30.26,5,1,6,0.01
2013-11-27,40.1,29.6,22.9,30.0,25.4,21.0,95,85,62,30.26,30.16,7,1,9,0.00
2013-11-28,44.2,29.0,20.7,31.0,25.0,19.0,100,86,59,30.29,30.20,6,1,7,0.01
2013-11-29,38.5,28.5,20.9,33.0,26.3,19.0,96,91,80,30.33,30.27,4,1,6,0.00
2013-12-3,32.3,27.5,18.6,26.0,16.6,12.0,91,65,50,30.32,30.16,17,6,24,0.00
2013-12-4,28.4,18.8,11.0,16.0,12.5,8.0,90,78,48,30.42,30.32,8,2,12,0.00
2013-12-5,22.9,15.1,6.0,14.0,10.0,3.0,90,80,64,30.41,30.30,7,1,10,0.00
2013-12-6,19.6,17.0,15.2,12.0,9.2,2.0,87,72,53,30.33,30.14,21,7,26,0.00
2013-12-7,19.5,12.2,0.9,4.0,-0.6,-5.0,86,59,36,30.51,30.19,22,5,34,0.00
2013-12-8,21.6,8.2,-1.6,7.0,2.4,-5.0,88,78,51,30.68,30.50,5,1,7,0.00
2013-12-9,34.8,21.3,4.8,27.0,15.6,2.0,89,79,71,30.67,30.47,21,6,31,0.00
2013-12-10,38.0,32.0,22.7,30.0,26.8,21.0,95,81,71,30.48,30.39,13,4,19,0.00
2013-12-11,34.8,24.4,16.0,27.0,21.1,14.0,95,87,72,30.47,30.38,7,1,8,0.01
2013-12-12,33.0,22.1,14.3,32.0,20.0,12.0,96,91,81,30.38,30.20,5,1,8,0.05
2013-12-14,52.6,44.1,33.8,40.0,35.6,-99.9,97,76,62,30.43,0.00,21,-9,27,0.00
2013-12-15,49.8,46.2,43.3,41.0,38.9,37.0,83,76,68,30.40,30.31,25,10,33,0.00
2013-12-16,51.1,37.7,27.6,37.0,32.4,26.0,95,82,52,30.45,30.34,15,2,25,0.00
2013-12-17,56.5,37.9,24.1,39.0,29.9,23.0,96,76,36,30.33,30.10,16,3,20,0.01
2013-12-18,45.2,39.6,25.8,39.0,30.9,21.0,84,71,52,30.10,29.93,17,7,25,0.00
2013-12-19,35.1,26.0,18.9,25.0,20.6,17.0,94,81,54,30.33,30.07,5,1,6,0.01
2013-12-20,40.2,33.1,24.7,37.0,28.5,20.0,95,83,61,30.18,29.83,16,7,23,0.08
2013-12-21,44.5,41.2,37.8,38.0,36.9,36.0,94,85,75,30.16,29.83,24,8,32,0.00
2013-12-22,47.4,41.0,36.5,41.0,38.2,36.0,97,89,79,30.30,30.16,15,5,23,0.02
2013-12-24,44.0,34.3,24.1,32.0,28.6,23.0,95,81,61,30.58,30.51,5,1,7,0.00
2013-12-25,40.7,28.3,21.5,32.0,25.6,20.0,96,90,69,30.56,30.45,4,1,5,0.01
2013-12-26,44.4,29.6,21.7,34.0,26.6,20.0,96,89,67,30.47,30.34,3,1,5,0.00
2013-12-27,50.9,34.1,21.6,41.0,30.2,20.0,97,86,70,30.34,30.18,16,2,19,0.01
2013-12-28,46.5,35.5,25.8,33.0,29.5,24.0,94,80,58,30.51,30.34,16,2,21,0.00
2013-12-29,41.6,30.8,23.8,32.0,27.6,22.0,95,89,69,30.50,30.28,8,1,10,0.01
2013-12-30,39.8,33.5,29.2,36.0,31.8,28.0,97,93,84,30.30,30.20,5,1,7,0.00
2013-12-31,46.3,39.1,28.1,39.0,35.2,27.0,96,86,69,30.37,30.22,15,4,21,0.01
2014-1-1,47.6,33.9,25.5,38.0,30.8,24.0,96,89,68,30.45,30.36,4,1,8,0.01
2014-1-2,48.8,38.2,28.0,39.0,34.2,27.0,97,86,63,30.37,29.98,13,2,20,0.08